Time;durP1;ratioP1;P1;durP2;ratioP2;P2;SDS_P1;SDS_P2;PMS_P1;PMS_P2;Temp;Humidity;BMP_temperature;BMP_pressure;BME280_temperature;BME280_humidity;BME280_pressure;Samples;Min_cycle;Max_cycle;Signal;HPM_P1;HPM_P2
2022/04/22 00:00:41;;;;;;;4.13;3.92;;;;;;;8.32;85.42;100381.63;6109625;23;20431;-70
2022/04/22 00:03:08;;;;;;;4.70;4.50;;;;;;;8.09;84.98;100353.13;6087754;23;20209;-69
2022/04/22 00:05:35;;;;;;;3.97;3.78;;;;;;;8.14;85.33;100374.69;6073312;23;20018;-69
2022/04/22 00:08:02;;;;;;;4.03;3.83;;;;;;;7.99;86.14;100339.66;6109272;23;20162;-70
2022/04/22 00:10:29;;;;;;;5.50;5.30;;;;;;;8.14;86.08;100366.84;6097009;23;20027;-70
2022/04/22 00:12:55;;;;;;;4.30;4.10;;;;;;;8.08;86.29;100360.13;6069995;23;20018;-70
2022/04/22 00:15:23;;;;;;;4.90;4.70;;;;;;;8.01;87.50;100365.72;6132487;23;20099;-70
2022/04/22 00:17:49;;;;;;;4.10;3.90;;;;;;;7.95;87.50;100364.22;6115652;23;20183;-71
2022/04/22 00:20:17;;;;;;;5.13;4.93;;;;;;;7.91;88.48;100363.50;6105743;23;20025;-70
2022/04/22 00:22:44;;;;;;;3.60;3.50;;;;;;;7.69;88.52;100336.69;6076792;23;20033;-69
2022/04/22 00:25:12;;;;;;;3.80;3.60;;;;;;;7.89;89.24;100367.97;6091630;23;20551;-71
2022/04/22 00:27:39;;;;;;;3.90;3.70;;;;;;;7.85;88.29;100358.56;6116539;23;20372;-71
2022/04/22 00:30:08;;;;;;;3.55;3.45;;;;;;;7.66;89.08;100322.03;6084935;23;20104;-70
2022/04/22 00:32:35;;;;;;;3.90;3.80;;;;;;;7.96;88.37;100364.16;6108619;23;20021;-71
2022/04/22 00:35:03;;;;;;;3.80;3.70;;;;;;;6.75;88.12;100155.66;6083262;23;20506;-70
2022/04/22 00:37:30;;;;;;;5.25;5.05;;;;;;;8.00;88.82;100351.81;6078523;23;20054;-70
2022/04/22 00:39:56;;;;;;;3.60;3.50;;;;;;;8.00;88.06;100364.88;6116678;23;20017;-69
2022/04/22 00:42:26;;;;;;;4.28;4.07;;;;;;;7.68;88.42;100309.75;6093615;23;20222;-70
2022/04/22 00:44:53;;;;;;;3.70;3.60;;;;;;;7.46;88.50;100289.00;6111812;23;20111;-71
2022/04/22 00:47:19;;;;;;;4.80;4.60;;;;;;;7.61;89.31;100303.09;6098953;23;20010;-70
2022/04/22 00:49:46;;;;;;;3.90;3.70;;;;;;;7.74;88.83;100327.75;6119005;23;20356;-70
2022/04/22 00:52:12;;;;;;;4.68;4.47;;;;;;;7.45;89.15;100291.66;6093274;23;20041;-69
2022/04/22 00:54:39;;;;;;;3.80;3.70;;;;;;;7.60;89.97;100327.53;6105168;23;20100;-69
2022/04/22 00:57:05;;;;;;;3.60;3.50;;;;;;;7.66;91.07;100323.75;6081153;23;20028;-70
2022/04/22 00:59:33;;;;;;;4.25;4.05;;;;;;;7.69;90.97;100327.09;6115164;23;20457;-70
2022/04/22 01:01:59;;;;;;;3.40;3.30;;;;;;;7.22;91.42;100248.31;6081536;23;20136;-70
2022/04/22 01:09:56;;;;;;;3.70;3.60;;;;;;;7.75;93.41;100339.03;6072527;23;20395;-70
2022/04/22 01:12:22;;;;;;;5.63;5.35;;;;;;;7.63;93.75;100340.44;6109581;23;20033;-70
2022/04/22 01:14:49;;;;;;;3.53;3.42;;;;;;;7.50;93.74;100340.16;6073754;23;20045;-69
2022/04/22 01:17:15;;;;;;;5.05;4.85;;;;;;;7.40;94.09;100336.28;6126556;23;20401;-71
2022/04/22 01:19:43;;;;;;;3.97;3.78;;;;;;;7.15;95.99;100324.28;6087554;23;20089;-70
2022/04/22 01:22:10;;;;;;;4.07;3.88;;;;;;;7.17;97.46;100301.56;6120503;23;20205;-70
2022/04/22 01:24:37;;;;;;;4.10;3.90;;;;;;;7.16;97.60;100301.66;6083580;23;20029;-70
2022/04/22 01:27:05;;;;;;;3.60;3.50;;;;;;;7.36;97.76;100337.31;6113543;23;20025;-70
2022/04/22 01:29:32;;;;;;;4.68;4.47;;;;;;;7.38;98.49;100345.94;6108086;23;20018;-70
2022/04/22 01:32:00;;;;;;;4.10;3.90;;;;;;;7.41;98.44;100327.50;6111353;23;20049;-70
2022/04/22 01:34:27;;;;;;;5.93;5.57;;;;;;;7.24;98.34;100298.72;6112424;23;20092;-70
2022/04/22 01:36:53;;;;;;;3.60;3.50;;;;;;;7.23;98.21;100299.63;6113771;23;20030;-70
2022/04/22 01:39:20;;;;;;;6.13;5.82;;;;;;;7.01;98.19;100266.66;6111409;23;20051;-71
2022/04/22 01:41:46;;;;;;;3.70;3.60;;;;;;;7.38;97.72;100319.81;6113514;23;20044;-70
2022/04/22 01:44:13;;;;;;;3.45;3.35;;;;;;;6.16;97.85;100118.28;6118780;23;20095;-70
2022/04/22 01:46:40;;;;;;;3.97;3.78;;;;;;;7.44;97.87;100316.94;6099391;23;20025;-70
2022/04/22 01:49:06;;;;;;;3.80;3.60;;;;;;;7.35;97.38;100289.47;6100179;23;20406;-70
2022/04/22 01:51:34;;;;;;;3.40;3.30;;;;;;;7.33;97.79;100291.31;6093066;23;20013;-71
2022/04/22 01:54:00;;;;;;;3.50;3.40;;;;;;;7.49;97.39;100317.56;6117155;23;20058;-70
2022/04/22 01:56:26;;;;;;;5.55;5.35;;;;;;;7.24;97.29;100277.84;6110410;23;20033;-71
2022/04/22 01:58:53;;;;;;;3.50;3.40;;;;;;;7.46;98.03;100317.72;6100854;23;20033;-69
2022/04/22 02:01:20;;;;;;;6.32;6.03;;;;;;;7.30;97.02;100296.66;6111507;23;20088;-69
2022/04/22 02:03:46;;;;;;;3.60;3.50;;;;;;;7.38;97.91;100317.22;6096082;23;20014;-70
2022/04/22 02:06:13;;;;;;;3.78;3.65;;;;;;;7.34;97.59;100316.50;6112132;23;20609;-70
2022/04/22 02:08:39;;;;;;;3.60;3.50;;;;;;;7.01;98.35;100264.03;6105873;23;20085;-71
2022/04/22 02:11:06;;;;;;;4.05;3.85;;;;;;;7.21;98.79;100299.69;6100647;23;20097;-70
2022/04/22 02:13:39;;;;;;;4.53;4.32;;;;;;;7.15;98.43;100311.22;6113413;23;20447;-70
2022/04/22 02:16:07;;;;;;;3.55;3.45;;;;;;;7.17;99.58;100309.41;6110035;23;20272;-71
2022/04/22 02:18:36;;;;;;;3.47;3.38;;;;;;;7.09;100.00;100285.41;6101155;23;20034;-71
2022/04/22 02:21:05;;;;;;;3.67;3.53;;;;;;;6.84;99.27;100243.94;6091722;23;20033;-71
2022/04/22 02:23:32;;;;;;;3.60;3.50;;;;;;;7.18;99.94;100305.91;6113278;23;20356;-69
2022/04/22 02:25:59;;;;;;;3.80;3.70;;;;;;;7.21;98.57;100304.91;6104881;23;20184;-70
2022/04/22 02:28:31;;;;;;;5.53;5.28;;;;;;;7.12;98.69;100294.88;6095172;23;20093;-70
2022/04/22 02:31:09;;;;;;;3.70;3.55;;;;;;;7.05;99.79;100294.28;6098071;23;20002;-70
2022/04/22 02:33:38;;;;;;;3.90;3.70;;;;;;;7.01;98.82;100305.78;6093889;23;20500;-70
2022/04/22 02:36:06;;;;;;;3.40;3.30;;;;;;;6.98;99.83;100305.94;6088313;23;20221;-71
2022/04/22 02:38:33;;;;;;;4.20;4.00;;;;;;;6.92;100.00;100307.03;6103867;23;20074;-70
2022/04/22 02:46:30;;;;;;;5.15;4.95;;;;;;;6.57;100.00;100266.81;6104177;23;20466;-70
2022/04/22 02:49:00;;;;;;;3.70;3.60;;;;;;;6.56;100.00;100263.38;6103121;23;20017;-71
2022/04/22 02:51:27;;;;;;;5.35;5.15;;;;;;;6.48;100.00;100265.47;6093867;23;20038;-70
2022/04/22 02:53:54;;;;;;;3.60;3.50;;;;;;;6.68;100.00;100301.13;6106259;23;20022;-69
2022/04/22 02:56:22;;;;;;;5.70;5.40;;;;;;;6.66;100.00;100297.72;6110703;23;20042;-69
2022/04/22 02:58:49;;;;;;;3.50;3.40;;;;;;;6.34;100.00;100247.78;6108296;23;20014;-70
2022/04/22 03:01:16;;;;;;;4.72;4.45;;;;;;;6.64;100.00;100298.72;6110179;23;20049;-70
2022/04/22 03:03:44;;;;;;;3.50;3.40;;;;;;;6.68;100.00;100298.50;6112924;23;20024;-70
2022/04/22 03:06:10;;;;;;;4.13;3.92;;;;;;;6.31;100.00;100240.09;6111879;23;20025;-70
2022/04/22 03:08:37;;;;;;;3.80;3.70;;;;;;;6.63;100.00;100294.41;6100927;23;20021;-70
2022/04/22 03:11:03;;;;;;;4.18;3.97;;;;;;;6.46;100.00;100266.44;6115410;23;20092;-71
2022/04/22 03:13:30;;;;;;;4.53;4.32;;;;;;;6.51;100.00;100267.91;6101263;23;20330;-69
2022/04/22 03:15:58;;;;;;;3.58;3.40;;;;;;;6.21;100.00;100217.94;6083703;23;20014;-70
2022/04/22 03:18:25;;;;;;;5.32;5.10;;;;;;;6.52;100.00;100269.63;6130400;23;20036;-70
2022/04/22 03:20:52;;;;;;;4.00;3.80;;;;;;;6.51;100.00;100261.88;6142407;23;20029;-69
2022/04/22 03:23:19;;;;;;;4.78;4.57;;;;;;;6.69;100.00;100274.09;6111540;23;20035;-68
2022/04/22 03:25:47;;;;;;;3.55;3.45;;;;;;;6.75;100.00;100281.66;6090720;23;20018;-70
2022/04/22 03:28:13;;;;;;;3.55;3.42;;;;;;;6.83;100.00;100283.09;6076645;23;20059;-71
2022/04/22 03:30:39;;;;;;;4.00;3.70;;;;;;;6.65;100.00;100248.25;6075961;23;20025;-70
2022/04/22 03:33:06;;;;;;;3.72;3.53;;;;;;;6.84;100.00;100277.84;6083150;23;20288;-70
2022/04/22 03:35:32;;;;;;;3.95;3.80;;;;;;;6.70;100.00;100260.19;6058079;23;20024;-70
2022/04/22 03:37:59;;;;;;;3.63;3.45;;;;;;;6.57;100.00;100238.13;6087089;23;20232;-69
2022/04/22 03:40:25;;;;;;;5.55;5.35;;;;;;;6.37;100.00;100213.78;6068465;23;20053;-68
2022/04/22 03:42:52;;;;;;;4.10;3.80;;;;;;;6.69;100.00;100274.09;6088846;23;20140;-70
2022/04/22 03:45:20;;;;;;;5.25;5.05;;;;;;;6.63;100.00;100276.97;6079307;23;20445;-69
2022/04/22 03:47:47;;;;;;;3.45;3.35;;;;;;;6.57;100.00;100285.06;6067558;23;20564;-69
2022/04/22 03:50:13;;;;;;;3.65;3.55;;;;;;;6.37;100.00;100255.50;6078036;23;20024;-70
2022/04/22 03:52:40;;;;;;;3.85;3.65;;;;;;;6.30;100.00;100251.44;6078946;23;20384;-69
2022/04/22 03:55:06;;;;;;;3.80;3.60;;;;;;;6.51;100.00;100274.91;6074173;23;20022;-70
2022/04/22 04:00:18;;;;;;;4.72;4.53;;;;;;;6.28;100.00;100231.56;6088042;23;20021;-71
2022/04/22 04:02:45;;;;;;;3.72;3.58;;;;;;;6.46;100.00;100263.84;6081014;23;20078;-70
2022/04/22 04:05:11;;;;;;;3.75;3.55;;;;;;;6.47;100.00;100278.53;6091478;23;20018;-71
2022/04/22 04:07:37;;;;;;;3.70;3.60;;;;;;;6.43;100.00;100261.34;6074676;23;20044;-70
2022/04/22 04:18:19;;;;;;;5.00;4.80;;;;;;;6.09;100.00;100224.50;6076185;23;20032;-71
2022/04/22 04:23:30;;;;;;;4.93;4.57;;;;;;;6.13;100.00;100252.16;6091741;23;20005;-70
2022/04/22 04:25:57;;;;;;;4.25;4.05;;;;;;;6.34;100.00;100257.38;6113605;23;20463;-71
2022/04/22 04:28:29;;;;;;;3.75;3.55;;;;;;;6.08;100.00;100212.41;6113945;23;20020;-71
2022/04/22 04:30:55;;;;;;;3.90;3.70;;;;;;;5.21;100.00;100063.19;6108387;23;20467;-71
2022/04/22 04:33:22;;;;;;;6.07;5.78;;;;;;;6.44;100.00;100263.91;6112379;23;20073;-70
2022/04/22 04:35:48;;;;;;;4.00;3.80;;;;;;;6.48;100.00;100257.63;6110025;23;20399;-71
2022/04/22 04:38:15;;;;;;;4.55;4.38;;;;;;;6.52;100.00;100258.34;6109995;23;20015;-71
2022/04/22 04:40:41;;;;;;;3.70;3.60;;;;;;;6.04;100.00;100176.13;6111290;23;20185;-70
2022/04/22 04:43:08;;;;;;;3.60;3.50;;;;;;;6.42;100.00;100226.63;6110428;23;20080;-70
2022/04/22 04:45:35;;;;;;;4.75;4.45;;;;;;;6.82;100.00;100271.84;6109165;23;20084;-70
2022/04/22 04:48:02;;;;;;;3.70;3.60;;;;;;;6.78;100.00;100207.69;6121891;23;20103;-69
2022/04/22 04:50:29;;;;;;;5.25;5.05;;;;;;;7.41;100.00;100269.22;6106730;23;20455;-69
2022/04/22 04:52:55;;;;;;;4.10;3.90;;;;;;;7.62;100.00;100267.38;6121070;23;20022;-70
2022/04/22 04:55:22;;;;;;;5.13;4.93;;;;;;;7.76;100.00;100259.75;6103287;23;20033;-70
2022/04/22 04:57:48;;;;;;;3.60;3.50;;;;;;;7.83;98.87;100234.19;6116020;23;20013;-70
2022/04/22 05:00:20;;;;;;;3.85;3.70;;;;;;;7.43;95.80;100145.53;6114810;23;20141;-71
2022/04/22 05:02:47;;;;;;;4.00;3.80;;;;;;;7.62;93.78;100181.19;6116717;23;20375;-70
2022/04/22 05:05:14;;;;;;;4.18;3.97;;;;;;;7.82;93.22;100185.44;6122780;23;20310;-70
2022/04/22 05:07:48;;;;;;;3.83;3.72;;;;;;;8.14;91.99;100192.56;6108976;23;20379;-70
2022/04/22 05:10:18;;;;;;;4.85;4.57;;;;;;;8.19;90.36;100177.47;6109021;23;20191;-70
2022/04/22 05:12:49;;;;;;;3.95;3.80;;;;;;;8.90;90.38;100251.50;6082837;23;20032;-71
2022/04/22 05:15:17;;;;;;;4.13;3.95;;;;;;;8.94;87.96;100250.41;6105312;23;20198;-70
2022/04/22 05:17:44;;;;;;;4.50;4.30;;;;;;;8.92;87.79;100247.00;6122403;23;20028;-70
2022/04/22 05:20:13;;;;;;;4.40;4.20;;;;;;;8.99;88.01;100270.16;6107548;23;20276;-70
2022/04/22 05:22:40;;;;;;;4.10;3.90;;;;;;;8.31;87.45;100144.63;6115258;23;21400;-69
2022/04/22 05:25:09;;;;;;;4.18;3.95;;;;;;;8.88;88.85;100256.81;6119031;23;20040;-70
2022/04/22 05:27:35;;;;;;;4.97;4.68;;;;;;;8.88;89.33;100219.31;6100197;23;20060;-70
2022/04/22 05:32:52;;;;;;;3.60;3.50;;;;;;;9.38;87.97;100244.56;6113592;23;20264;-70
2022/04/22 05:35:22;;;;;;;5.28;5.07;;;;;;;9.51;87.40;100245.59;6112189;23;20032;-70
2022/04/22 05:37:50;;;;;;;4.15;3.95;;;;;;;9.83;85.88;100242.13;6115145;23;20013;-69
2022/04/22 05:40:21;;;;;;;8.27;7.78;;;;;;;10.21;83.91;100244.31;6103332;23;20014;-70
2022/04/22 05:42:49;;;;;;;4.50;4.30;;;;;;;10.61;81.50;100240.22;6111640;23;20023;-69
2022/04/22 05:45:16;;;;;;;5.20;4.90;;;;;;;10.70;80.62;100223.91;6110136;23;20084;-69
2022/04/22 05:47:43;;;;;;;4.57;4.38;;;;;;;10.67;79.48;100247.72;6074912;23;20022;-69
2022/04/22 05:50:14;;;;;;;4.97;4.70;;;;;;;10.38;79.88;100231.94;6101198;23;20026;-69
2022/04/22 05:52:42;;;;;;;4.53;4.32;;;;;;;10.23;82.19;100238.03;6091670;23;20499;-70
2022/04/22 05:55:10;;;;;;;4.65;4.40;;;;;;;9.97;82.44;100256.13;6104334;23;20036;-70
2022/04/22 05:57:37;;;;;;;5.22;4.93;;;;;;;9.87;83.61;100246.25;6095848;23;20322;-71
2022/04/22 06:00:07;;;;;;;4.40;4.20;;;;;;;9.61;82.85;100196.16;6118804;23;20198;-70
2022/04/22 06:02:35;;;;;;;4.80;4.60;;;;;;;10.01;83.35;100238.44;6107341;23;20009;-70
2022/04/22 06:05:02;;;;;;;4.20;4.00;;;;;;;9.69;83.30;100193.94;6117556;23;20240;-70
2022/04/22 06:07:28;;;;;;;6.28;5.70;;;;;;;9.64;82.73;100169.78;6080065;23;20088;-70
2022/04/22 06:12:40;;;;;;;4.47;4.28;;;;;;;10.06;81.59;100212.78;6108528;23;20981;-70
2022/04/22 06:15:07;;;;;;;4.30;4.10;;;;;;;10.24;82.01;100229.22;6108142;23;20026;-70
2022/04/22 06:17:34;;;;;;;4.72;4.50;;;;;;;10.32;81.15;100231.44;6112667;23;20029;-70
2022/04/22 06:20:00;;;;;;;4.30;4.10;;;;;;;10.33;80.49;100223.50;6123534;23;20137;-70
2022/04/22 06:22:27;;;;;;;6.15;5.85;;;;;;;10.31;80.56;100227.97;6112432;23;20030;-70
2022/04/22 06:24:54;;;;;;;4.35;4.15;;;;;;;10.26;82.00;100221.28;6093553;23;20013;-70
2022/04/22 06:27:26;;;;;;;5.47;5.18;;;;;;;10.40;81.81;100223.97;6059983;23;20490;-70
2022/04/22 06:29:54;;;;;;;4.82;4.63;;;;;;;10.32;80.33;100213.94;6092687;23;20474;-70
2022/04/22 06:32:27;;;;;;;5.93;5.63;;;;;;;10.48;81.26;100219.09;6077945;23;20049;-70
2022/04/22 06:34:53;;;;;;;4.63;4.43;;;;;;;10.52;79.95;100225.03;6083321;23;20010;-69
2022/04/22 06:37:21;;;;;;;5.38;5.18;;;;;;;10.57;79.93;100222.97;6088979;23;20595;-70
2022/04/22 06:48:04;;;;;;;4.50;4.30;;;;;;;10.86;79.79;100179.19;6084662;23;20102;-70
2022/04/22 06:50:51;;;;;;;4.80;4.60;;;;;;;10.87;77.92;100172.19;6086284;23;20148;-70
2022/04/22 06:53:19;;;;;;;5.53;5.30;;;;;;;10.96;78.83;100168.97;6082936;23;20040;-70
2022/04/22 06:55:47;;;;;;;4.70;4.50;;;;;;;10.89;78.87;100167.69;6064152;23;20530;-70
2022/04/22 06:58:16;;;;;;;4.32;4.13;;;;;;;10.69;78.27;100161.03;6096732;23;20092;-70
2022/04/22 07:00:44;;;;;;;4.45;4.25;;;;;;;10.45;78.22;100150.25;6087419;23;20100;-70
2022/04/22 07:03:12;;;;;;;4.43;4.22;;;;;;;10.80;78.76;100212.88;6083943;23;20030;-70
2022/04/22 07:05:40;;;;;;;4.93;4.72;;;;;;;10.90;78.74;100216.63;6085962;23;20029;-69
2022/04/22 07:08:13;;;;;;;4.35;4.15;;;;;;;10.87;79.25;100190.56;6086717;23;20018;-70
2022/04/22 07:10:41;;;;;;;4.50;4.30;;;;;;;11.00;80.92;100207.22;6060160;23;20032;-70
2022/04/22 07:13:09;;;;;;;5.00;4.70;;;;;;;10.95;79.74;100214.56;6083991;23;20649;-70
2022/04/22 07:15:36;;;;;;;4.75;4.55;;;;;;;10.73;81.87;100191.41;6085243;23;20081;-70
2022/04/22 07:18:03;;;;;;;4.20;4.00;;;;;;;11.06;80.99;100214.72;6087908;23;20038;-69
2022/04/22 07:20:30;;;;;;;6.25;5.95;;;;;;;10.99;80.24;100208.19;6081247;23;20130;-69
2022/04/22 07:22:59;;;;;;;4.53;4.32;;;;;;;11.00;80.45;100201.16;6085283;23;20067;-70
2022/04/22 07:25:26;;;;;;;6.35;6.05;;;;;;;10.37;81.05;100106.97;6059917;23;20486;-70
2022/04/22 07:27:55;;;;;;;4.78;4.55;;;;;;;10.68;81.27;100143.59;6094971;23;20053;-70
2022/04/22 07:30:22;;;;;;;6.40;6.10;;;;;;;10.81;81.56;100198.81;6091641;23;20051;-70
2022/04/22 07:32:50;;;;;;;4.75;4.55;;;;;;;10.71;81.74;100198.53;6071292;23;20014;-70
2022/04/22 07:35:18;;;;;;;5.00;4.78;;;;;;;10.48;81.96;100177.13;6094754;23;20032;-69
2022/04/22 07:37:50;;;;;;;6.45;5.95;;;;;;;10.53;82.12;100208.34;6092308;23;20017;-70
2022/04/22 07:40:19;;;;;;;5.57;5.28;;;;;;;10.09;82.87;100149.69;6093069;23;20020;-70
2022/04/22 07:48:34;;;;;;;7.43;5.45;;;;;;;10.40;82.92;100199.53;6086529;23;20025;-70
2022/04/22 07:51:01;;;;;;;4.40;4.20;;;;;;;9.84;83.46;100103.09;6106563;23;20072;-70
2022/04/22 07:53:27;;;;;;;6.25;5.95;;;;;;;10.11;81.88;100157.47;6075873;23;20451;-70
2022/04/22 07:55:53;;;;;;;4.60;4.40;;;;;;;10.24;83.05;100170.69;6105378;23;20317;-71
2022/04/22 07:58:20;;;;;;;5.75;5.50;;;;;;;10.53;83.50;100197.88;6101625;23;20005;-71
2022/04/22 08:00:46;;;;;;;4.50;4.30;;;;;;;10.67;83.17;100197.88;6107405;23;20111;-71
2022/04/22 08:03:16;;;;;;;5.05;4.55;;;;;;;10.60;81.94;100161.59;6080028;23;20368;-70
2022/04/22 08:05:42;;;;;;;4.43;4.22;;;;;;;11.06;80.23;100195.50;6075715;23;20026;-70
2022/04/22 08:08:10;;;;;;;4.50;4.30;;;;;;;11.22;78.97;100198.84;6108231;23;20025;-69
2022/04/22 08:10:37;;;;;;;5.13;4.93;;;;;;;11.57;77.23;100190.53;6096284;23;20504;-70
2022/04/22 08:13:07;;;;;;;4.97;4.78;;;;;;;11.83;76.83;100159.91;6100234;23;20083;-70
2022/04/22 08:15:34;;;;;;;4.82;4.63;;;;;;;11.92;74.89;100185.63;6099062;23;20293;-69
2022/04/22 08:18:03;;;;;;;4.50;4.30;;;;;;;11.77;73.54;100170.84;6103496;23;20028;-69
2022/04/22 08:20:31;;;;;;;6.45;6.15;;;;;;;12.51;70.33;100193.09;6108662;23;20369;-70
2022/04/22 08:22:59;;;;;;;4.90;4.60;;;;;;;12.50;69.19;100148.44;6073232;23;20037;-69
2022/04/22 08:25:26;;;;;;;6.40;6.10;;;;;;;12.75;68.22;100195.81;6107168;23;20459;-70
2022/04/22 08:27:52;;;;;;;4.80;4.60;;;;;;;12.94;65.40;100186.63;6107508;23;20427;-69
2022/04/22 08:30:19;;;;;;;6.10;5.68;;;;;;;13.00;68.93;100183.56;6100357;23;20411;-68
2022/04/22 08:32:46;;;;;;;4.93;4.63;;;;;;;12.48;66.65;100147.69;6113109;23;20021;-70
2022/04/22 08:35:12;;;;;;;6.80;4.80;;;;;;;12.78;64.25;100173.69;6067903;23;20020;-70
2022/04/22 08:37:42;;;;;;;5.07;4.78;;;;;;;13.03;66.43;100188.63;6112540;23;20363;-71
2022/04/22 08:40:08;;;;;;;5.15;4.85;;;;;;;13.01;66.36;100169.44;6079461;23;20334;-69
2022/04/22 08:42:37;;;;;;;4.88;4.68;;;;;;;13.17;63.89;100177.94;6092237;23;21115;-70
2022/04/22 08:45:05;;;;;;;5.50;5.20;;;;;;;13.28;60.83;100161.34;6105286;23;20346;-70
2022/04/22 08:50:17;;;;;;;5.45;5.25;;;;;;;14.18;57.02;100176.75;6086158;23;20029;-70
2022/04/22 08:52:56;;;;;;;5.28;4.97;;;;;;;14.18;57.59;100187.31;6117304;23;20321;-70
2022/04/22 08:55:26;;;;;;;6.93;6.55;;;;;;;13.08;58.57;100085.56;6076853;23;20052;-70
2022/04/22 08:57:54;;;;;;;5.68;5.38;;;;;;;13.41;59.21;100187.72;6108742;23;20229;-70
2022/04/22 09:00:24;;;;;;;6.53;6.18;;;;;;;13.13;62.06;100146.66;6110362;23;20473;-70
2022/04/22 09:02:54;;;;;;;5.68;5.28;;;;;;;13.24;62.84;100159.88;6112026;23;20013;-70
2022/04/22 09:05:20;;;;;;;5.80;5.50;;;;;;;13.19;60.81;100162.03;6114427;23;20024;-68
2022/04/22 09:07:47;;;;;;;5.35;4.97;;;;;;;12.97;62.67;100137.22;6102601;23;20749;-67
2022/04/22 09:10:13;;;;;;;4.78;4.55;;;;;;;13.45;61.12;100152.28;6114310;23;20414;-67
2022/04/22 09:12:52;;;;;;;4.50;4.30;;;;;;;14.19;62.08;100154.66;6121892;23;20278;-68
2022/04/22 09:15:23;;;;;;;6.18;5.78;;;;;;;14.45;61.45;100146.56;6114781;23;20025;-67
2022/04/22 09:17:57;;;;;;;5.10;4.80;;;;;;;14.31;60.71;100155.53;6118096;23;20354;-66
2022/04/22 09:20:28;;;;;;;6.07;5.78;;;;;;;14.19;63.76;100159.94;6099720;23;20458;-67
2022/04/22 09:22:56;;;;;;;6.03;4.53;;;;;;;13.82;60.93;100146.91;6116739;23;20448;-67
2022/04/22 09:25:25;;;;;;;6.22;5.93;;;;;;;13.77;61.20;100138.47;6080458;23;20465;-68
2022/04/22 09:27:52;;;;;;;4.70;4.50;;;;;;;14.01;61.19;100132.31;6091483;23;20387;-67
2022/04/22 09:30:30;;;;;;;7.25;6.72;;;;;;;14.25;62.99;100098.81;6103275;23;20037;-67
2022/04/22 09:32:57;;;;;;;5.45;5.15;;;;;;;14.16;63.00;100091.59;6097447;23;20021;-67
2022/04/22 09:35:25;;;;;;;6.20;5.90;;;;;;;14.67;59.83;100140.47;6094690;23;20026;-68
2022/04/22 09:43:34;;;;;;;6.07;5.78;;;;;;;14.64;59.05;100128.38;6087690;23;20457;-68
2022/04/22 09:46:04;;;;;;;5.05;4.85;;;;;;;13.74;58.59;100078.91;6122612;23;20442;-67
2022/04/22 09:48:42;;;;;;;5.70;5.47;;;;;;;13.92;60.52;100139.97;6090490;23;20386;-67
2022/04/22 09:51:20;;;;;;;4.57;4.38;;;;;;;13.91;59.37;100126.91;6120478;23;20045;-66
2022/04/22 09:53:58;;;;;;;4.65;4.45;;;;;;;13.76;60.11;100121.00;6088921;23;20174;-66
2022/04/22 09:56:25;;;;;;;5.97;5.68;;;;;;;13.80;59.46;100134.78;6107961;23;20104;-66
2022/04/22 09:58:51;;;;;;;4.38;4.18;;;;;;;13.90;60.20;100131.34;6105802;23;20021;-67
2022/04/22 10:01:18;;;;;;;5.80;5.50;;;;;;;12.60;58.11;99909.94;6113966;23;20178;-67
2022/04/22 10:03:55;;;;;;;4.65;4.45;;;;;;;14.01;57.97;100116.50;6088208;23;20324;-67
2022/04/22 10:06:21;;;;;;;6.07;5.78;;;;;;;14.42;60.71;100100.13;6101205;23;20124;-68
2022/04/22 10:08:52;;;;;;;5.15;4.95;;;;;;;14.72;57.46;100114.56;6099047;23;20020;-68
2022/04/22 10:11:20;;;;;;;6.80;6.38;;;;;;;14.89;56.15;100113.22;6093659;23;20345;-67
2022/04/22 10:13:48;;;;;;;4.78;4.57;;;;;;;15.15;55.72;100103.19;6094498;23;20336;-67
2022/04/22 10:16:15;;;;;;;5.07;4.88;;;;;;;15.43;54.06;100069.22;6111322;23;20153;-69
2022/04/22 10:18:42;;;;;;;5.93;4.63;;;;;;;15.33;50.08;100080.56;6115890;23;20108;-67
2022/04/22 10:21:09;;;;;;;4.60;4.40;;;;;;;16.05;49.61;100094.06;6112683;23;20135;-67
2022/04/22 10:23:44;;;;;;;5.10;4.80;;;;;;;16.02;48.96;100073.16;6095433;23;20084;-67
2022/04/22 10:26:10;;;;;;;5.03;4.82;;;;;;;15.80;49.56;100085.56;6118269;23;20041;-67
2022/04/22 10:28:38;;;;;;;5.03;4.82;;;;;;;15.93;49.51;100096.75;6083515;23;20021;-67
2022/04/22 10:31:05;;;;;;;4.85;4.65;;;;;;;16.18;51.30;100077.94;6108341;23;20029;-69
2022/04/22 10:33:39;;;;;;;6.20;5.90;;;;;;;15.51;50.87;100078.19;6088963;23;20024;-67
2022/04/22 10:36:06;;;;;;;5.20;5.00;;;;;;;15.34;52.63;100106.03;6089293;23;20263;-67
2022/04/22 10:38:38;;;;;;;5.78;5.38;;;;;;;14.70;52.02;100100.63;6107710;23;20396;-67
2022/04/22 10:41:16;;;;;;;5.03;4.67;;;;;;;14.77;51.93;100099.19;6096404;23;20411;-67
2022/04/22 10:47:13;;;;;;;5.13;4.82;;;;;;;14.97;51.08;100089.66;6094677;23;20013;-68
2022/04/22 10:47:18;;;;;;;5.30;5.00;;;;;;;15.40;51.06;100070.31;6104631;23;20464;-68
2022/04/22 10:49:19;;;;;;;6.25;5.95;;;;;;;15.58;48.67;100090.94;6079829;23;20028;-69
2022/04/22 10:51:57;;;;;;;4.88;4.68;;;;;;;15.36;50.39;100092.69;6089015;23;20081;-68
2022/04/22 10:54:52;;;;;;;6.13;5.82;;;;;;;15.43;49.96;100085.91;6113369;23;20571;-67
2022/04/22 10:57:19;;;;;;;6.07;5.70;;;;;;;15.20;50.24;100071.94;6095343;23;20368;-67
2022/04/22 11:00:00;;;;;;;5.40;5.10;;;;;;;15.25;50.83;100072.41;6098069;23;20093;-67
2022/04/22 11:02:29;;;;;;;6.20;5.90;;;;;;;15.13;50.37;100074.25;6115580;23;20053;-67
2022/04/22 11:05:21;;;;;;;4.75;4.55;;;;;;;15.23;48.56;100068.22;6116827;23;20273;-68
2022/04/22 11:07:50;;;;;;;4.80;4.60;;;;;;;15.46;49.14;100069.81;6101837;23;20047;-68
2022/04/22 11:10:20;;;;;;;5.70;5.40;;;;;;;15.60;52.38;100055.44;6116638;23;20074;-67
2022/04/22 11:12:54;;;;;;;4.70;4.50;;;;;;;15.50;50.32;100022.81;6115995;23;20148;-67
2022/04/22 11:15:43;;;;;;;6.50;6.20;;;;;;;15.99;47.74;100050.41;6114490;23;20097;-68
2022/04/22 11:18:13;;;;;;;4.90;4.70;;;;;;;14.98;49.20;99890.53;6111044;23;20414;-67
2022/04/22 11:20:45;;;;;;;5.47;5.18;;;;;;;15.93;49.25;100043.84;6115049;23;20151;-68
2022/04/22 11:23:12;;;;;;;5.00;4.80;;;;;;;16.21;46.75;100046.75;6088019;23;20021;-67
2022/04/22 11:25:40;;;;;;;5.72;5.35;;;;;;;16.17;48.60;100026.00;6114589;23;20090;-67
2022/04/22 11:28:09;;;;;;;5.10;4.90;;;;;;;15.99;46.16;100044.28;6086702;23;20084;-67
2022/04/22 11:30:37;;;;;;;5.25;4.95;;;;;;;16.05;45.81;100038.47;6119240;23;20550;-67
2022/04/22 11:33:22;;;;;;;5.00;4.80;;;;;;;15.92;47.45;100039.53;6109752;23;20029;-67
2022/04/22 11:35:50;;;;;;;5.75;5.43;;;;;;;15.63;48.33;100028.72;6100995;23;20073;-67
2022/04/22 11:38:16;;;;;;;6.10;5.80;;;;;;;15.85;45.03;100033.06;6099182;23;20077;-67
2022/04/22 11:40:44;;;;;;;5.25;5.05;;;;;;;15.75;47.61;99899.91;6097706;23;20403;-67
2022/04/22 11:43:12;;;;;;;5.53;5.22;;;;;;;16.98;44.80;100024.16;6113488;23;20619;-67
2022/04/22 11:45:41;;;;;;;5.22;5.03;;;;;;;18.01;41.92;100021.84;6111677;23;20025;-67
2022/04/22 11:48:28;;;;;;;5.70;5.15;;;;;;;17.49;42.60;100023.03;6104920;23;20034;-67
2022/04/22 11:50:58;;;;;;;5.35;5.13;;;;;;;16.88;43.61;100025.97;6110112;23;20359;-67
2022/04/22 11:53:29;;;;;;;6.53;6.13;;;;;;;16.36;44.21;100020.78;6086960;23;20009;-68
2022/04/22 11:55:55;;;;;;;5.55;5.15;;;;;;;16.17;49.27;100016.22;6097676;23;20054;-67
2022/04/22 11:58:27;;;;;;;7.82;7.13;;;;;;;16.08;43.65;99972.88;6105040;23;20001;-67
2022/04/22 12:06:28;;;;;;;6.68;6.28;;;;;;;16.71;44.08;99987.69;6100500;23;20100;-69
2022/04/22 12:09:02;;;;;;;5.20;5.00;;;;;;;17.47;43.09;100005.59;6108539;23;20016;-69
2022/04/22 12:11:29;;;;;;;6.47;6.18;;;;;;;17.94;41.89;100003.84;6099226;23;20037;-68
2022/04/22 12:13:56;;;;;;;5.35;5.05;;;;;;;18.52;38.96;99999.25;6105588;23;20324;-68
2022/04/22 12:16:25;;;;;;;6.65;6.35;;;;;;;18.03;38.95;99913.69;6110301;23;20482;-68
2022/04/22 12:18:56;;;;;;;5.20;5.00;;;;;;;17.95;40.27;99986.09;6112490;23;20012;-68
2022/04/22 12:21:24;;;;;;;6.57;6.28;;;;;;;16.94;43.37;99906.16;6098088;23;20115;-67
2022/04/22 12:23:52;;;;;;;4.90;4.70;;;;;;;17.40;42.02;99986.75;6104852;23;20544;-67
2022/04/22 12:26:23;;;;;;;7.07;6.70;;;;;;;17.37;42.68;99984.38;6113276;23;20029;-68
2022/04/22 12:29:05;;;;;;;5.88;5.57;;;;;;;17.74;44.30;99973.84;6090694;23;20079;-68
2022/04/22 12:31:32;;;;;;;6.05;5.75;;;;;;;16.84;42.23;99923.84;6097599;23;20499;-68
2022/04/22 12:34:09;;;;;;;5.70;5.40;;;;;;;16.94;43.85;99983.00;6103938;23;20014;-69